sensor_id;sensor_type;location;lat;lon;timestamp;P1;durP1;ratioP1;P2;durP2;ratioP2
66628;SDS011;53532;53.084;6.352;2023-04-24T00:01:53;8.63;;;6.18;;
66628;SDS011;53532;53.084;6.352;2023-04-24T00:04:20;7.18;;;5.57;;
66628;SDS011;53532;53.084;6.352;2023-04-24T00:06:46;7.57;;;5.00;;
66628;SDS011;53532;53.084;6.352;2023-04-24T00:09:20;7.55;;;5.25;;
66628;SDS011;53532;53.084;6.352;2023-04-24T00:11:46;7.78;;;5.30;;
66628;SDS011;53532;53.084;6.352;2023-04-24T00:14:12;7.70;;;4.88;;
66628;SDS011;53532;53.084;6.352;2023-04-24T00:16:38;6.88;;;4.57;;
66628;SDS011;53532;53.084;6.352;2023-04-24T00:19:04;7.35;;;4.88;;
66628;SDS011;53532;53.084;6.352;2023-04-24T00:21:31;6.88;;;4.78;;
66628;SDS011;53532;53.084;6.352;2023-04-24T00:23:57;7.07;;;4.32;;
66628;SDS011;53532;53.084;6.352;2023-04-24T00:26:25;6.57;;;3.90;;
66628;SDS011;53532;53.084;6.352;2023-04-24T00:28:51;5.63;;;3.80;;
66628;SDS011;53532;53.084;6.352;2023-04-24T00:31:17;5.90;;;3.53;;
66628;SDS011;53532;53.084;6.352;2023-04-24T00:33:44;5.53;;;3.10;;
66628;SDS011;53532;53.084;6.352;2023-04-24T00:36:10;4.47;;;2.88;;
66628;SDS011;53532;53.084;6.352;2023-04-24T00:38:36;4.07;;;2.72;;
66628;SDS011;53532;53.084;6.352;2023-04-24T00:41:02;4.60;;;2.90;;
66628;SDS011;53532;53.084;6.352;2023-04-24T00:43:30;5.15;;;3.00;;
66628;SDS011;53532;53.084;6.352;2023-04-24T00:45:56;4.90;;;3.00;;
66628;SDS011;53532;53.084;6.352;2023-04-24T00:48:24;4.80;;;3.00;;
66628;SDS011;53532;53.084;6.352;2023-04-24T00:50:50;5.53;;;3.30;;
66628;SDS011;53532;53.084;6.352;2023-04-24T00:53:17;5.18;;;3.03;;
66628;SDS011;53532;53.084;6.352;2023-04-24T00:55:43;5.18;;;3.15;;
66628;SDS011;53532;53.084;6.352;2023-04-24T00:58:09;6.35;;;3.58;;
66628;SDS011;53532;53.084;6.352;2023-04-24T01:00:37;5.30;;;3.33;;
66628;SDS011;53532;53.084;6.352;2023-04-24T01:03:03;6.28;;;3.40;;
66628;SDS011;53532;53.084;6.352;2023-04-24T01:05:31;5.28;;;3.45;;
66628;SDS011;53532;53.084;6.352;2023-04-24T01:07:57;4.97;;;3.28;;
66628;SDS011;53532;53.084;6.352;2023-04-24T01:10:24;5.60;;;3.33;;
66628;SDS011;53532;53.084;6.352;2023-04-24T01:12:51;5.38;;;3.28;;
66628;SDS011;53532;53.084;6.352;2023-04-24T01:15:17;5.30;;;3.30;;
66628;SDS011;53532;53.084;6.352;2023-04-24T01:17:45;9.68;;;4.07;;
66628;SDS011;53532;53.084;6.352;2023-04-24T01:20:11;7.43;;;3.83;;
66628;SDS011;53532;53.084;6.352;2023-04-24T01:22:39;6.70;;;3.80;;
66628;SDS011;53532;53.084;6.352;2023-04-24T01:25:06;6.03;;;3.95;;
66628;SDS011;53532;53.084;6.352;2023-04-24T01:27:32;6.80;;;4.22;;
66628;SDS011;53532;53.084;6.352;2023-04-24T01:29:58;5.95;;;4.18;;
66628;SDS011;53532;53.084;6.352;2023-04-24T01:32:25;6.25;;;4.10;;
66628;SDS011;53532;53.084;6.352;2023-04-24T01:34:51;5.93;;;4.32;;
66628;SDS011;53532;53.084;6.352;2023-04-24T01:37:17;6.60;;;4.03;;
66628;SDS011;53532;53.084;6.352;2023-04-24T01:39:45;5.97;;;4.38;;
66628;SDS011;53532;53.084;6.352;2023-04-24T01:42:11;6.47;;;4.60;;
66628;SDS011;53532;53.084;6.352;2023-04-24T01:44:38;6.28;;;4.65;;
66628;SDS011;53532;53.084;6.352;2023-04-24T01:47:04;7.45;;;4.80;;
66628;SDS011;53532;53.084;6.352;2023-04-24T01:49:31;7.43;;;5.00;;
66628;SDS011;53532;53.084;6.352;2023-04-24T01:51:57;7.40;;;5.43;;
66628;SDS011;53532;53.084;6.352;2023-04-24T01:54:23;7.30;;;5.32;;
66628;SDS011;53532;53.084;6.352;2023-04-24T01:56:51;7.70;;;5.55;;
66628;SDS011;53532;53.084;6.352;2023-04-24T01:59:17;8.70;;;5.60;;
66628;SDS011;53532;53.084;6.352;2023-04-24T02:01:46;8.82;;;5.72;;
66628;SDS011;53532;53.084;6.352;2023-04-24T02:04:12;7.50;;;5.72;;
66628;SDS011;53532;53.084;6.352;2023-04-24T02:06:40;8.25;;;6.00;;
66628;SDS011;53532;53.084;6.352;2023-04-24T02:09:06;9.27;;;6.32;;
66628;SDS011;53532;53.084;6.352;2023-04-24T02:11:33;8.98;;;6.32;;
66628;SDS011;53532;53.084;6.352;2023-04-24T02:14:00;9.50;;;6.72;;
66628;SDS011;53532;53.084;6.352;2023-04-24T02:16:27;10.57;;;7.28;;
66628;SDS011;53532;53.084;6.352;2023-04-24T02:18:57;11.15;;;7.22;;
66628;SDS011;53532;53.084;6.352;2023-04-24T02:21:23;11.75;;;8.23;;
66628;SDS011;53532;53.084;6.352;2023-04-24T02:23:49;11.18;;;8.32;;
66628;SDS011;53532;53.084;6.352;2023-04-24T02:26:15;11.73;;;8.18;;
66628;SDS011;53532;53.084;6.352;2023-04-24T02:28:42;10.18;;;8.27;;
66628;SDS011;53532;53.084;6.352;2023-04-24T02:31:10;10.02;;;8.10;;
66628;SDS011;53532;53.084;6.352;2023-04-24T02:33:36;11.40;;;8.65;;
66628;SDS011;53532;53.084;6.352;2023-04-24T02:36:02;11.68;;;8.75;;
66628;SDS011;53532;53.084;6.352;2023-04-24T02:38:28;12.52;;;9.13;;
66628;SDS011;53532;53.084;6.352;2023-04-24T02:40:54;11.82;;;8.77;;
66628;SDS011;53532;53.084;6.352;2023-04-24T02:43:21;13.15;;;9.45;;
66628;SDS011;53532;53.084;6.352;2023-04-24T02:45:47;11.63;;;9.40;;
66628;SDS011;53532;53.084;6.352;2023-04-24T02:48:15;13.35;;;10.40;;
66628;SDS011;53532;53.084;6.352;2023-04-24T02:50:42;15.00;;;10.75;;
66628;SDS011;53532;53.084;6.352;2023-04-24T02:53:08;13.48;;;10.18;;
66628;SDS011;53532;53.084;6.352;2023-04-24T02:55:34;14.57;;;10.85;;
66628;SDS011;53532;53.084;6.352;2023-04-24T02:58:01;13.63;;;10.75;;
66628;SDS011;53532;53.084;6.352;2023-04-24T03:00:27;16.67;;;11.65;;
66628;SDS011;53532;53.084;6.352;2023-04-24T03:02:53;14.73;;;11.40;;
66628;SDS011;53532;53.084;6.352;2023-04-24T03:05:21;16.67;;;11.82;;
66628;SDS011;53532;53.084;6.352;2023-04-24T03:07:47;16.05;;;11.73;;
66628;SDS011;53532;53.084;6.352;2023-04-24T03:10:13;18.58;;;12.40;;
66628;SDS011;53532;53.084;6.352;2023-04-24T03:12:39;16.50;;;12.20;;
66628;SDS011;53532;53.084;6.352;2023-04-24T03:15:06;18.88;;;13.15;;
66628;SDS011;53532;53.084;6.352;2023-04-24T03:17:32;16.80;;;13.25;;
66628;SDS011;53532;53.084;6.352;2023-04-24T03:19:58;17.10;;;13.40;;
66628;SDS011;53532;53.084;6.352;2023-04-24T03:22:26;20.08;;;14.88;;
66628;SDS011;53532;53.084;6.352;2023-04-24T03:24:52;20.60;;;15.02;;
66628;SDS011;53532;53.084;6.352;2023-04-24T03:27:19;21.20;;;15.48;;
66628;SDS011;53532;53.084;6.352;2023-04-24T03:29:46;20.35;;;16.20;;
66628;SDS011;53532;53.084;6.352;2023-04-24T03:32:12;20.48;;;16.60;;
66628;SDS011;53532;53.084;6.352;2023-04-24T03:34:38;22.50;;;16.80;;
66628;SDS011;53532;53.084;6.352;2023-04-24T03:37:04;21.40;;;17.65;;
66628;SDS011;53532;53.084;6.352;2023-04-24T03:39:32;22.80;;;17.80;;
66628;SDS011;53532;53.084;6.352;2023-04-24T03:41:58;21.33;;;18.20;;
66628;SDS011;53532;53.084;6.352;2023-04-24T03:44:25;26.00;;;19.33;;
66628;SDS011;53532;53.084;6.352;2023-04-24T03:46:51;20.88;;;18.08;;
66628;SDS011;53532;53.084;6.352;2023-04-24T03:49:17;23.67;;;19.30;;
66628;SDS011;53532;53.084;6.352;2023-04-24T03:51:44;23.17;;;19.13;;
66628;SDS011;53532;53.084;6.352;2023-04-24T03:54:10;21.50;;;18.83;;
66628;SDS011;53532;53.084;6.352;2023-04-24T03:56:37;20.17;;;18.05;;
66628;SDS011;53532;53.084;6.352;2023-04-24T03:59:04;21.90;;;17.70;;
66628;SDS011;53532;53.084;6.352;2023-04-24T04:01:30;21.48;;;17.30;;
66628;SDS011;53532;53.084;6.352;2023-04-24T04:03:56;18.27;;;16.00;;
66628;SDS011;53532;53.084;6.352;2023-04-24T04:06:22;17.50;;;15.60;;
66628;SDS011;53532;53.084;6.352;2023-04-24T04:08:48;18.30;;;15.48;;
66628;SDS011;53532;53.084;6.352;2023-04-24T04:11:14;20.10;;;16.25;;
66628;SDS011;53532;53.084;6.352;2023-04-24T04:13:42;19.15;;;15.85;;
66628;SDS011;53532;53.084;6.352;2023-04-24T04:16:08;19.42;;;15.40;;
66628;SDS011;53532;53.084;6.352;2023-04-24T04:18:34;19.67;;;16.05;;
66628;SDS011;53532;53.084;6.352;2023-04-24T04:21:01;17.10;;;15.00;;
66628;SDS011;53532;53.084;6.352;2023-04-24T04:23:27;18.77;;;15.48;;
66628;SDS011;53532;53.084;6.352;2023-04-24T04:25:53;17.30;;;14.90;;
66628;SDS011;53532;53.084;6.352;2023-04-24T04:28:20;17.80;;;15.30;;
66628;SDS011;53532;53.084;6.352;2023-04-24T04:30:47;15.60;;;13.90;;
66628;SDS011;53532;53.084;6.352;2023-04-24T04:33:14;18.02;;;14.57;;
66628;SDS011;53532;53.084;6.352;2023-04-24T04:35:41;18.33;;;14.52;;
66628;SDS011;53532;53.084;6.352;2023-04-24T04:38:07;21.92;;;15.82;;
66628;SDS011;53532;53.084;6.352;2023-04-24T04:40:35;20.75;;;15.88;;
66628;SDS011;53532;53.084;6.352;2023-04-24T04:43:02;18.05;;;15.48;;
66628;SDS011;53532;53.084;6.352;2023-04-24T04:45:28;12.98;;;9.60;;
66628;SDS011;53532;53.084;6.352;2023-04-24T04:47:57;11.88;;;9.65;;
66628;SDS011;53532;53.084;6.352;2023-04-24T04:50:23;11.90;;;8.55;;
66628;SDS011;53532;53.084;6.352;2023-04-24T04:52:49;9.70;;;6.07;;
66628;SDS011;53532;53.084;6.352;2023-04-24T04:55:15;9.48;;;5.65;;
66628;SDS011;53532;53.084;6.352;2023-04-24T04:57:41;8.98;;;5.43;;
66628;SDS011;53532;53.084;6.352;2023-04-24T05:00:08;7.97;;;5.07;;
66628;SDS011;53532;53.084;6.352;2023-04-24T05:02:35;9.35;;;4.95;;
66628;SDS011;53532;53.084;6.352;2023-04-24T05:05:03;9.35;;;4.50;;
66628;SDS011;53532;53.084;6.352;2023-04-24T05:07:29;8.77;;;4.47;;
66628;SDS011;53532;53.084;6.352;2023-04-24T05:09:56;10.00;;;5.07;;
66628;SDS011;53532;53.084;6.352;2023-04-24T05:12:22;9.75;;;5.45;;
66628;SDS011;53532;53.084;6.352;2023-04-24T05:14:48;9.15;;;5.13;;
66628;SDS011;53532;53.084;6.352;2023-04-24T05:17:14;9.05;;;4.45;;
66628;SDS011;53532;53.084;6.352;2023-04-24T05:19:41;6.78;;;4.07;;
66628;SDS011;53532;53.084;6.352;2023-04-24T05:22:08;7.00;;;4.40;;
66628;SDS011;53532;53.084;6.352;2023-04-24T05:24:36;7.50;;;4.35;;
66628;SDS011;53532;53.084;6.352;2023-04-24T05:27:03;7.13;;;4.32;;
66628;SDS011;53532;53.084;6.352;2023-04-24T05:29:32;7.47;;;4.32;;
66628;SDS011;53532;53.084;6.352;2023-04-24T05:31:58;9.60;;;4.80;;
66628;SDS011;53532;53.084;6.352;2023-04-24T05:34:25;9.05;;;5.32;;
66628;SDS011;53532;53.084;6.352;2023-04-24T05:36:51;7.95;;;4.95;;
66628;SDS011;53532;53.084;6.352;2023-04-24T05:39:19;8.63;;;5.55;;
66628;SDS011;53532;53.084;6.352;2023-04-24T05:41:45;8.38;;;4.97;;
66628;SDS011;53532;53.084;6.352;2023-04-24T05:44:11;10.73;;;5.53;;
66628;SDS011;53532;53.084;6.352;2023-04-24T05:46:38;9.00;;;4.32;;
66628;SDS011;53532;53.084;6.352;2023-04-24T05:49:04;6.85;;;4.03;;
66628;SDS011;53532;53.084;6.352;2023-04-24T05:51:30;8.35;;;4.22;;
66628;SDS011;53532;53.084;6.352;2023-04-24T05:53:57;5.95;;;3.58;;
66628;SDS011;53532;53.084;6.352;2023-04-24T05:56:24;7.32;;;3.70;;
66628;SDS011;53532;53.084;6.352;2023-04-24T05:58:50;7.25;;;4.05;;
66628;SDS011;53532;53.084;6.352;2023-04-24T06:01:16;8.65;;;4.90;;
66628;SDS011;53532;53.084;6.352;2023-04-24T06:03:43;9.65;;;5.15;;
66628;SDS011;53532;53.084;6.352;2023-04-24T06:06:09;8.10;;;5.20;;
66628;SDS011;53532;53.084;6.352;2023-04-24T06:08:35;9.23;;;5.05;;
66628;SDS011;53532;53.084;6.352;2023-04-24T06:11:02;9.20;;;5.40;;
66628;SDS011;53532;53.084;6.352;2023-04-24T06:13:29;9.25;;;5.63;;
66628;SDS011;53532;53.084;6.352;2023-04-24T06:15:55;10.52;;;5.75;;
66628;SDS011;53532;53.084;6.352;2023-04-24T06:18:21;9.40;;;6.25;;
66628;SDS011;53532;53.084;6.352;2023-04-24T06:20:47;10.27;;;6.78;;
66628;SDS011;53532;53.084;6.352;2023-04-24T06:23:14;9.90;;;6.90;;
66628;SDS011;53532;53.084;6.352;2023-04-24T06:25:40;12.00;;;7.07;;
66628;SDS011;53532;53.084;6.352;2023-04-24T06:28:07;12.52;;;7.50;;
66628;SDS011;53532;53.084;6.352;2023-04-24T06:30:34;9.90;;;6.85;;
66628;SDS011;53532;53.084;6.352;2023-04-24T06:33:00;13.43;;;7.22;;
66628;SDS011;53532;53.084;6.352;2023-04-24T06:35:26;10.07;;;7.53;;
66628;SDS011;53532;53.084;6.352;2023-04-24T06:37:53;10.32;;;7.00;;
66628;SDS011;53532;53.084;6.352;2023-04-24T06:40:21;10.35;;;6.75;;
66628;SDS011;53532;53.084;6.352;2023-04-24T06:42:47;9.57;;;6.70;;
66628;SDS011;53532;53.084;6.352;2023-04-24T06:45:13;9.65;;;6.68;;
66628;SDS011;53532;53.084;6.352;2023-04-24T06:47:41;8.52;;;6.03;;
66628;SDS011;53532;53.084;6.352;2023-04-24T06:50:07;10.60;;;6.22;;
66628;SDS011;53532;53.084;6.352;2023-04-24T06:52:33;8.88;;;5.00;;
66628;SDS011;53532;53.084;6.352;2023-04-24T06:55:00;7.13;;;4.43;;
66628;SDS011;53532;53.084;6.352;2023-04-24T06:57:27;6.18;;;3.95;;
66628;SDS011;53532;53.084;6.352;2023-04-24T06:59:53;7.85;;;4.00;;
66628;SDS011;53532;53.084;6.352;2023-04-24T07:02:20;8.02;;;4.10;;
66628;SDS011;53532;53.084;6.352;2023-04-24T07:04:47;9.00;;;4.07;;
66628;SDS011;53532;53.084;6.352;2023-04-24T07:07:13;7.57;;;4.22;;
66628;SDS011;53532;53.084;6.352;2023-04-24T07:09:40;6.45;;;3.95;;
66628;SDS011;53532;53.084;6.352;2023-04-24T07:12:07;6.10;;;3.30;;
66628;SDS011;53532;53.084;6.352;2023-04-24T07:14:33;5.25;;;3.25;;
66628;SDS011;53532;53.084;6.352;2023-04-24T07:16:59;5.93;;;3.50;;
66628;SDS011;53532;53.084;6.352;2023-04-24T07:19:26;7.38;;;3.45;;
66628;SDS011;53532;53.084;6.352;2023-04-24T07:21:53;8.10;;;4.03;;
66628;SDS011;53532;53.084;6.352;2023-04-24T07:24:20;7.65;;;4.03;;
66628;SDS011;53532;53.084;6.352;2023-04-24T07:26:46;8.40;;;4.20;;
66628;SDS011;53532;53.084;6.352;2023-04-24T07:29:12;7.28;;;3.58;;
66628;SDS011;53532;53.084;6.352;2023-04-24T07:31:39;7.43;;;3.15;;
66628;SDS011;53532;53.084;6.352;2023-04-24T07:34:06;8.48;;;3.50;;
66628;SDS011;53532;53.084;6.352;2023-04-24T07:36:32;6.88;;;3.33;;
66628;SDS011;53532;53.084;6.352;2023-04-24T07:39:00;8.13;;;3.47;;
66628;SDS011;53532;53.084;6.352;2023-04-24T07:41:26;8.55;;;4.07;;
66628;SDS011;53532;53.084;6.352;2023-04-24T07:43:53;13.15;;;7.63;;
66628;SDS011;53532;53.084;6.352;2023-04-24T07:46:19;13.70;;;8.68;;
66628;SDS011;53532;53.084;6.352;2023-04-24T07:48:45;14.38;;;8.98;;
66628;SDS011;53532;53.084;6.352;2023-04-24T07:51:13;15.02;;;9.50;;
66628;SDS011;53532;53.084;6.352;2023-04-24T07:53:39;18.23;;;10.88;;
66628;SDS011;53532;53.084;6.352;2023-04-24T07:56:07;20.05;;;12.15;;
66628;SDS011;53532;53.084;6.352;2023-04-24T07:58:33;21.63;;;14.25;;
66628;SDS011;53532;53.084;6.352;2023-04-24T08:00:59;20.75;;;13.35;;
66628;SDS011;53532;53.084;6.352;2023-04-24T08:03:25;22.98;;;14.55;;
66628;SDS011;53532;53.084;6.352;2023-04-24T08:05:51;23.67;;;14.55;;
66628;SDS011;53532;53.084;6.352;2023-04-24T08:08:18;21.83;;;15.77;;
66628;SDS011;53532;53.084;6.352;2023-04-24T08:10:44;27.15;;;15.95;;
66628;SDS011;53532;53.084;6.352;2023-04-24T08:13:12;22.42;;;14.57;;
66628;SDS011;53532;53.084;6.352;2023-04-24T08:15:38;20.52;;;13.48;;
66628;SDS011;53532;53.084;6.352;2023-04-24T08:18:04;22.75;;;13.80;;
66628;SDS011;53532;53.084;6.352;2023-04-24T08:20:30;21.50;;;14.98;;
66628;SDS011;53532;53.084;6.352;2023-04-24T08:22:56;22.42;;;14.40;;
66628;SDS011;53532;53.084;6.352;2023-04-24T08:25:23;20.20;;;15.13;;
66628;SDS011;53532;53.084;6.352;2023-04-24T08:27:49;21.45;;;15.88;;
66628;SDS011;53532;53.084;6.352;2023-04-24T08:30:17;24.25;;;16.20;;
66628;SDS011;53532;53.084;6.352;2023-04-24T08:32:43;23.58;;;16.30;;
66628;SDS011;53532;53.084;6.352;2023-04-24T08:35:10;23.33;;;17.02;;
66628;SDS011;53532;53.084;6.352;2023-04-24T08:37:36;23.88;;;17.00;;
66628;SDS011;53532;53.084;6.352;2023-04-24T08:40:03;22.88;;;17.80;;
66628;SDS011;53532;53.084;6.352;2023-04-24T08:42:32;25.88;;;18.33;;
66628;SDS011;53532;53.084;6.352;2023-04-24T08:44:59;23.27;;;17.25;;
66628;SDS011;53532;53.084;6.352;2023-04-24T08:47:27;27.73;;;18.35;;
66628;SDS011;53532;53.084;6.352;2023-04-24T08:49:53;23.63;;;17.67;;
66628;SDS011;53532;53.084;6.352;2023-04-24T08:52:20;25.23;;;17.85;;
66628;SDS011;53532;53.084;6.352;2023-04-24T08:54:47;27.63;;;18.63;;
66628;SDS011;53532;53.084;6.352;2023-04-24T08:57:13;25.45;;;17.65;;
66628;SDS011;53532;53.084;6.352;2023-04-24T08:59:40;24.67;;;16.60;;
66628;SDS011;53532;53.084;6.352;2023-04-24T09:02:06;24.63;;;17.20;;
66628;SDS011;53532;53.084;6.352;2023-04-24T09:04:37;23.23;;;14.55;;
66628;SDS011;53532;53.084;6.352;2023-04-24T09:07:03;19.88;;;14.02;;
66628;SDS011;53532;53.084;6.352;2023-04-24T09:09:32;19.98;;;13.05;;
66628;SDS011;53532;53.084;6.352;2023-04-24T09:11:58;17.17;;;12.98;;
66628;SDS011;53532;53.084;6.352;2023-04-24T09:14:25;19.65;;;13.25;;
66628;SDS011;53532;53.084;6.352;2023-04-24T09:16:52;19.55;;;11.65;;
66628;SDS011;53532;53.084;6.352;2023-04-24T09:19:18;16.48;;;11.60;;
66628;SDS011;53532;53.084;6.352;2023-04-24T09:21:46;17.23;;;11.02;;
66628;SDS011;53532;53.084;6.352;2023-04-24T09:24:14;15.95;;;10.90;;
66628;SDS011;53532;53.084;6.352;2023-04-24T09:26:43;15.52;;;11.10;;
66628;SDS011;53532;53.084;6.352;2023-04-24T09:29:13;18.88;;;11.35;;
66628;SDS011;53532;53.084;6.352;2023-04-24T09:31:40;16.40;;;11.65;;
66628;SDS011;53532;53.084;6.352;2023-04-24T09:34:06;19.25;;;11.10;;
66628;SDS011;53532;53.084;6.352;2023-04-24T09:36:33;14.70;;;9.88;;
66628;SDS011;53532;53.084;6.352;2023-04-24T09:39:03;14.68;;;10.07;;
66628;SDS011;53532;53.084;6.352;2023-04-24T09:41:31;18.60;;;9.35;;
66628;SDS011;53532;53.084;6.352;2023-04-24T09:44:01;13.13;;;8.68;;
66628;SDS011;53532;53.084;6.352;2023-04-24T09:46:36;11.93;;;7.05;;
66628;SDS011;53532;53.084;6.352;2023-04-24T09:49:07;12.57;;;6.80;;
66628;SDS011;53532;53.084;6.352;2023-04-24T09:51:35;9.45;;;5.05;;
66628;SDS011;53532;53.084;6.352;2023-04-24T09:54:11;9.43;;;5.45;;
66628;SDS011;53532;53.084;6.352;2023-04-24T09:56:39;8.88;;;5.30;;
66628;SDS011;53532;53.084;6.352;2023-04-24T09:59:08;11.88;;;5.60;;
66628;SDS011;53532;53.084;6.352;2023-04-24T10:01:34;10.38;;;5.40;;
66628;SDS011;53532;53.084;6.352;2023-04-24T10:04:01;12.73;;;5.80;;
66628;SDS011;53532;53.084;6.352;2023-04-24T10:06:32;12.70;;;6.22;;
66628;SDS011;53532;53.084;6.352;2023-04-24T10:08:58;15.50;;;6.63;;
66628;SDS011;53532;53.084;6.352;2023-04-24T10:11:26;12.30;;;6.13;;
66628;SDS011;53532;53.084;6.352;2023-04-24T10:13:53;14.27;;;6.00;;
66628;SDS011;53532;53.084;6.352;2023-04-24T10:16:21;11.30;;;5.63;;
66628;SDS011;53532;53.084;6.352;2023-04-24T10:18:47;9.57;;;5.07;;
66628;SDS011;53532;53.084;6.352;2023-04-24T10:21:14;14.18;;;5.30;;
66628;SDS011;53532;53.084;6.352;2023-04-24T10:23:40;14.63;;;5.43;;
66628;SDS011;53532;53.084;6.352;2023-04-24T10:26:08;10.70;;;4.53;;
66628;SDS011;53532;53.084;6.352;2023-04-24T10:28:36;10.52;;;3.75;;
66628;SDS011;53532;53.084;6.352;2023-04-24T10:31:02;8.38;;;3.88;;
66628;SDS011;53532;53.084;6.352;2023-04-24T10:33:29;11.27;;;3.95;;
66628;SDS011;53532;53.084;6.352;2023-04-24T10:35:56;11.07;;;3.70;;
66628;SDS011;53532;53.084;6.352;2023-04-24T10:38:24;10.25;;;3.55;;
66628;SDS011;53532;53.084;6.352;2023-04-24T10:40:51;10.55;;;3.20;;
66628;SDS011;53532;53.084;6.352;2023-04-24T10:43:23;8.48;;;3.10;;
66628;SDS011;53532;53.084;6.352;2023-04-24T10:48:42;8.93;;;3.60;;
66628;SDS011;53532;53.084;6.352;2023-04-24T10:51:11;13.05;;;3.80;;
66628;SDS011;53532;53.084;6.352;2023-04-24T10:53:39;9.68;;;3.53;;
66628;SDS011;53532;53.084;6.352;2023-04-24T10:56:06;7.78;;;3.30;;
66628;SDS011;53532;53.084;6.352;2023-04-24T10:58:36;9.27;;;3.65;;
66628;SDS011;53532;53.084;6.352;2023-04-24T11:01:03;8.30;;;3.50;;
66628;SDS011;53532;53.084;6.352;2023-04-24T11:03:30;10.30;;;3.42;;
66628;SDS011;53532;53.084;6.352;2023-04-24T11:05:58;10.57;;;3.35;;
66628;SDS011;53532;53.084;6.352;2023-04-24T11:08:25;10.40;;;3.30;;
66628;SDS011;53532;53.084;6.352;2023-04-24T11:10:59;8.82;;;2.83;;
66628;SDS011;53532;53.084;6.352;2023-04-24T11:13:26;9.95;;;3.00;;
66628;SDS011;53532;53.084;6.352;2023-04-24T11:18:38;9.60;;;3.53;;
66628;SDS011;53532;53.084;6.352;2023-04-24T11:21:12;9.95;;;3.03;;
66628;SDS011;53532;53.084;6.352;2023-04-24T11:23:38;8.30;;;3.00;;
66628;SDS011;53532;53.084;6.352;2023-04-24T11:26:12;7.97;;;2.70;;
66628;SDS011;53532;53.084;6.352;2023-04-24T11:28:44;8.27;;;2.67;;
66628;SDS011;53532;53.084;6.352;2023-04-24T11:33:55;6.30;;;2.10;;
66628;SDS011;53532;53.084;6.352;2023-04-24T11:36:22;7.00;;;2.10;;
66628;SDS011;53532;53.084;6.352;2023-04-24T11:38:48;7.05;;;2.13;;
66628;SDS011;53532;53.084;6.352;2023-04-24T11:41:15;10.35;;;2.42;;
66628;SDS011;53532;53.084;6.352;2023-04-24T11:43:41;8.70;;;2.33;;
66628;SDS011;53532;53.084;6.352;2023-04-24T11:46:07;8.35;;;2.50;;
66628;SDS011;53532;53.084;6.352;2023-04-24T11:48:34;9.05;;;2.90;;
66628;SDS011;53532;53.084;6.352;2023-04-24T11:51:05;8.13;;;2.75;;
66628;SDS011;53532;53.084;6.352;2023-04-24T11:53:33;10.77;;;2.40;;
66628;SDS011;53532;53.084;6.352;2023-04-24T11:56:02;7.68;;;2.50;;
66628;SDS011;53532;53.084;6.352;2023-04-24T11:58:34;7.63;;;2.53;;
66628;SDS011;53532;53.084;6.352;2023-04-24T12:01:01;9.27;;;2.60;;
66628;SDS011;53532;53.084;6.352;2023-04-24T12:03:27;6.97;;;2.53;;
66628;SDS011;53532;53.084;6.352;2023-04-24T12:05:58;10.45;;;3.20;;
66628;SDS011;53532;53.084;6.352;2023-04-24T12:08:32;7.65;;;2.85;;
66628;SDS011;53532;53.084;6.352;2023-04-24T12:10:59;11.82;;;3.38;;
66628;SDS011;53532;53.084;6.352;2023-04-24T12:13:26;9.75;;;2.95;;
66628;SDS011;53532;53.084;6.352;2023-04-24T12:15:54;8.85;;;2.85;;
66628;SDS011;53532;53.084;6.352;2023-04-24T12:18:21;10.20;;;3.20;;
66628;SDS011;53532;53.084;6.352;2023-04-24T12:20:48;8.95;;;2.50;;
66628;SDS011;53532;53.084;6.352;2023-04-24T12:23:14;7.00;;;2.28;;
66628;SDS011;53532;53.084;6.352;2023-04-24T12:25:42;7.78;;;2.50;;
66628;SDS011;53532;53.084;6.352;2023-04-24T12:28:08;6.80;;;2.17;;
66628;SDS011;53532;53.084;6.352;2023-04-24T12:30:38;8.38;;;2.38;;
66628;SDS011;53532;53.084;6.352;2023-04-24T12:33:05;6.90;;;2.20;;
66628;SDS011;53532;53.084;6.352;2023-04-24T12:35:32;5.68;;;2.17;;
66628;SDS011;53532;53.084;6.352;2023-04-24T12:38:04;6.78;;;1.90;;
66628;SDS011;53532;53.084;6.352;2023-04-24T12:40:31;5.97;;;2.03;;
66628;SDS011;53532;53.084;6.352;2023-04-24T12:42:58;6.15;;;1.70;;
66628;SDS011;53532;53.084;6.352;2023-04-24T12:45:24;8.38;;;1.95;;
66628;SDS011;53532;53.084;6.352;2023-04-24T12:47:52;7.05;;;2.50;;
66628;SDS011;53532;53.084;6.352;2023-04-24T12:50:19;7.47;;;1.75;;
66628;SDS011;53532;53.084;6.352;2023-04-24T12:52:45;8.88;;;1.83;;
66628;SDS011;53532;53.084;6.352;2023-04-24T12:55:11;8.55;;;2.00;;
66628;SDS011;53532;53.084;6.352;2023-04-24T12:57:38;8.07;;;1.88;;
66628;SDS011;53532;53.084;6.352;2023-04-24T13:00:07;5.28;;;1.70;;
66628;SDS011;53532;53.084;6.352;2023-04-24T13:02:33;6.20;;;1.50;;
66628;SDS011;53532;53.084;6.352;2023-04-24T13:05:00;6.38;;;1.60;;
66628;SDS011;53532;53.084;6.352;2023-04-24T13:07:27;4.13;;;1.60;;
66628;SDS011;53532;53.084;6.352;2023-04-24T13:09:54;7.20;;;1.33;;
66628;SDS011;53532;53.084;6.352;2023-04-24T13:12:20;5.57;;;1.08;;
66628;SDS011;53532;53.084;6.352;2023-04-24T13:14:48;5.30;;;1.30;;
66628;SDS011;53532;53.084;6.352;2023-04-24T13:17:16;4.38;;;1.15;;
66628;SDS011;53532;53.084;6.352;2023-04-24T13:19:43;6.28;;;1.17;;
66628;SDS011;53532;53.084;6.352;2023-04-24T13:22:10;7.85;;;1.50;;
66628;SDS011;53532;53.084;6.352;2023-04-24T13:24:36;5.78;;;1.30;;
66628;SDS011;53532;53.084;6.352;2023-04-24T13:27:03;4.32;;;1.17;;
66628;SDS011;53532;53.084;6.352;2023-04-24T13:29:29;3.33;;;1.00;;
66628;SDS011;53532;53.084;6.352;2023-04-24T13:31:55;3.28;;;1.30;;
66628;SDS011;53532;53.084;6.352;2023-04-24T13:34:23;3.28;;;1.00;;
66628;SDS011;53532;53.084;6.352;2023-04-24T13:36:50;3.13;;;0.95;;
66628;SDS011;53532;53.084;6.352;2023-04-24T13:39:16;4.95;;;0.90;;
66628;SDS011;53532;53.084;6.352;2023-04-24T13:41:42;4.65;;;1.10;;
66628;SDS011;53532;53.084;6.352;2023-04-24T13:44:09;4.45;;;1.10;;
66628;SDS011;53532;53.084;6.352;2023-04-24T13:46:35;4.38;;;1.38;;
66628;SDS011;53532;53.084;6.352;2023-04-24T13:49:01;6.35;;;1.73;;
66628;SDS011;53532;53.084;6.352;2023-04-24T13:51:30;5.78;;;1.60;;
66628;SDS011;53532;53.084;6.352;2023-04-24T13:53:56;6.18;;;1.52;;
66628;SDS011;53532;53.084;6.352;2023-04-24T13:56:22;6.10;;;1.60;;
66628;SDS011;53532;53.084;6.352;2023-04-24T13:58:48;7.25;;;2.00;;
66628;SDS011;53532;53.084;6.352;2023-04-24T14:01:14;8.55;;;2.67;;
66628;SDS011;53532;53.084;6.352;2023-04-24T14:03:41;9.20;;;2.40;;
66628;SDS011;53532;53.084;6.352;2023-04-24T14:06:08;12.45;;;3.00;;
66628;SDS011;53532;53.084;6.352;2023-04-24T14:08:36;12.05;;;2.80;;
66628;SDS011;53532;53.084;6.352;2023-04-24T14:11:02;12.25;;;2.83;;
66628;SDS011;53532;53.084;6.352;2023-04-24T14:13:28;13.45;;;2.65;;
66628;SDS011;53532;53.084;6.352;2023-04-24T14:15:54;8.73;;;2.63;;
66628;SDS011;53532;53.084;6.352;2023-04-24T14:18:21;11.77;;;2.90;;
66628;SDS011;53532;53.084;6.352;2023-04-24T14:20:47;9.82;;;2.97;;
66628;SDS011;53532;53.084;6.352;2023-04-24T14:23:13;11.45;;;3.40;;
66628;SDS011;53532;53.084;6.352;2023-04-24T14:25:41;15.40;;;3.65;;
66628;SDS011;53532;53.084;6.352;2023-04-24T14:28:07;12.88;;;3.90;;
66628;SDS011;53532;53.084;6.352;2023-04-24T14:30:33;11.93;;;3.30;;
66628;SDS011;53532;53.084;6.352;2023-04-24T14:33:02;13.60;;;3.67;;
66628;SDS011;53532;53.084;6.352;2023-04-24T14:35:29;12.60;;;3.80;;
66628;SDS011;53532;53.084;6.352;2023-04-24T14:37:57;12.00;;;3.70;;
66628;SDS011;53532;53.084;6.352;2023-04-24T14:40:24;13.05;;;4.07;;
66628;SDS011;53532;53.084;6.352;2023-04-24T14:42:52;11.38;;;3.70;;
66628;SDS011;53532;53.084;6.352;2023-04-24T14:45:18;15.30;;;3.90;;